DLH42SF EDDH-EKCH
Flight info
| Callsign | DLH42SF |
|---|---|
| Flight time | 0h 39m |
| Altitude | 23000 |
| Route | LUGEG3G/33 LUGEG P605 GESKA/N0363F220 Z711 MONAK |
| Aircraft | A320/M-SDE3FGHIRWY/LB1 |
Departure
| Time | 2026-05-04 21:13 |
|---|---|
| Airport | Hamburg Helmut Schmidt Airport (EDDH) |
Arrival
| Time | 2026-05-04 21:52 |
|---|---|
| Airport | Copenhagen Kastrup Airport (EKCH) |
| Time | Latitude | Longitude | Altitude | Speed | Heading |
|---|---|---|---|---|---|
| 2026-05-04 20:46 | 53.63359 | 10.00357 | 51 ft | 0 kts | 86° |
| 2026-05-04 21:03 | 53.63357 | 10.00325 | 47 ft | 4 kts | 86° |
| 2026-05-04 21:04 | 53.63356 | 10.00280 | 51 ft | 4 kts | 86° |
| 2026-05-04 21:04 | 53.63354 | 10.00237 | 51 ft | 2 kts | 86° |
| 2026-05-04 21:04 | 53.63354 | 10.00199 | 51 ft | 4 kts | 104° |
| 2026-05-04 21:04 | 53.63366 | 10.00165 | 49 ft | 4 kts | 163° |
| 2026-05-04 21:05 | 53.63377 | 10.00161 | 45 ft | 0 kts | 176° |
| 2026-05-04 21:10 | 53.63354 | 10.00164 | 51 ft | 7 kts | 175° |
| 2026-05-04 21:10 | 53.63306 | 10.00172 | 48 ft | 9 kts | 175° |
| 2026-05-04 21:10 | 53.63245 | 10.00179 | 51 ft | 8 kts | 178° |
| 2026-05-04 21:10 | 53.63188 | 10.00183 | 51 ft | 8 kts | 176° |
| 2026-05-04 21:11 | 53.63136 | 10.00190 | 51 ft | 7 kts | 175° |
| 2026-05-04 21:11 | 53.63088 | 10.00194 | 49 ft | 7 kts | 182° |
| 2026-05-04 21:11 | 53.63051 | 10.00161 | 51 ft | 6 kts | 211° |
| 2026-05-04 21:11 | 53.63019 | 10.00128 | 51 ft | 5 kts | 211° |
| 2026-05-04 21:12 | 53.62990 | 10.00098 | 51 ft | 5 kts | 212° |
| 2026-05-04 21:12 | 53.62923 | 9.99997 | 50 ft | 16 kts | 240° |
| 2026-05-04 21:12 | 53.62873 | 9.99820 | 50 ft | 18 kts | 248° |
| 2026-05-04 21:12 | 53.62946 | 9.99676 | 49 ft | 20 kts | 332° |
| 2026-05-04 21:13 | 53.63257 | 9.99407 | 51 ft | 88 kts | 333° |
| 2026-05-04 21:13 | 53.64006 | 9.98758 | 51 ft | 151 kts | 333° |
| 2026-05-04 21:13 | 53.64993 | 9.97930 | 624 ft | 161 kts | 333° |
| 2026-05-04 21:13 | 53.65992 | 9.97076 | 1453 ft | 163 kts | 333° |
| 2026-05-04 21:14 | 53.67067 | 9.96142 | 1959 ft | 186 kts | 332° |
| 2026-05-04 21:14 | 53.68297 | 9.95092 | 2476 ft | 208 kts | 335° |
| 2026-05-04 21:14 | 53.69762 | 9.94649 | 3186 ft | 220 kts | 359° |
| 2026-05-04 21:14 | 53.71309 | 9.94698 | 4119 ft | 224 kts | 359° |
| 2026-05-04 21:15 | 53.72857 | 9.95240 | 4976 ft | 235 kts | 24° |
| 2026-05-04 21:15 | 53.74162 | 9.97017 | 5630 ft | 255 kts | 54° |
| 2026-05-04 21:15 | 53.75032 | 9.99794 | 6157 ft | 280 kts | 64° |
| 2026-05-04 21:15 | 53.75880 | 10.02794 | 6985 ft | 289 kts | 64° |
| 2026-05-04 21:16 | 53.76759 | 10.05898 | 7909 ft | 295 kts | 64° |
| 2026-05-04 21:16 | 53.77655 | 10.09050 | 8874 ft | 300 kts | 64° |
| 2026-05-04 21:16 | 53.78571 | 10.12264 | 9843 ft | 306 kts | 64° |
| 2026-05-04 21:16 | 53.79520 | 10.15584 | 10418 ft | 325 kts | 64° |
| 2026-05-04 21:17 | 53.80541 | 10.19135 | 10818 ft | 345 kts | 64° |
| 2026-05-04 21:17 | 53.81606 | 10.22844 | 11552 ft | 354 kts | 64° |
| 2026-05-04 21:17 | 53.82687 | 10.26613 | 12381 ft | 359 kts | 64° |
| 2026-05-04 21:17 | 53.83781 | 10.30439 | 13205 ft | 363 kts | 64° |
| 2026-05-04 21:18 | 53.84884 | 10.34304 | 13998 ft | 368 kts | 64° |
| 2026-05-04 21:18 | 53.86006 | 10.38226 | 14700 ft | 373 kts | 63° |
| 2026-05-04 21:18 | 53.87142 | 10.42204 | 15422 ft | 377 kts | 64° |
| 2026-05-04 21:18 | 53.88286 | 10.46242 | 16131 ft | 382 kts | 64° |
| 2026-05-04 21:19 | 53.89438 | 10.50319 | 16831 ft | 386 kts | 64° |
| 2026-05-04 21:19 | 53.90607 | 10.54454 | 17517 ft | 391 kts | 64° |
| 2026-05-04 21:19 | 53.91785 | 10.58637 | 18209 ft | 395 kts | 64° |
| 2026-05-04 21:19 | 53.92976 | 10.62868 | 18810 ft | 400 kts | 63° |
| 2026-05-04 21:20 | 53.94385 | 10.66961 | 19397 ft | 403 kts | 53° |
| 2026-05-04 21:20 | 53.96189 | 10.70617 | 19976 ft | 406 kts | 45° |
| 2026-05-04 21:20 | 53.98136 | 10.74132 | 20578 ft | 411 kts | 45° |
| 2026-05-04 21:20 | 54.00102 | 10.77698 | 21172 ft | 415 kts | 45° |
| 2026-05-04 21:21 | 54.02082 | 10.81307 | 21740 ft | 420 kts | 45° |
| 2026-05-04 21:21 | 54.04081 | 10.84959 | 22320 ft | 424 kts | 45° |
| 2026-05-04 21:21 | 54.06106 | 10.88659 | 22838 ft | 429 kts | 45° |
| 2026-05-04 21:21 | 54.08141 | 10.92385 | 22976 ft | 428 kts | 45° |
| 2026-05-04 21:22 | 54.10147 | 10.96065 | 22998 ft | 420 kts | 45° |
| 2026-05-04 21:22 | 54.12104 | 10.99656 | 22999 ft | 418 kts | 45° |
| 2026-05-04 21:22 | 54.14076 | 11.03287 | 22995 ft | 418 kts | 45° |
| 2026-05-04 21:22 | 54.16051 | 11.06942 | 22992 ft | 418 kts | 45° |
| 2026-05-04 21:23 | 54.18018 | 11.10599 | 22991 ft | 419 kts | 45° |
| 2026-05-04 21:23 | 54.19988 | 11.14272 | 22996 ft | 419 kts | 45° |
| 2026-05-04 21:23 | 54.21958 | 11.17950 | 22994 ft | 419 kts | 45° |
| 2026-05-04 21:23 | 54.23925 | 11.21629 | 22998 ft | 420 kts | 45° |
| 2026-05-04 21:24 | 54.25894 | 11.25320 | 22998 ft | 420 kts | 45° |
| 2026-05-04 21:24 | 54.27860 | 11.29010 | 22994 ft | 420 kts | 45° |
| 2026-05-04 21:24 | 54.29830 | 11.32709 | 22996 ft | 420 kts | 45° |
| 2026-05-04 21:24 | 54.31800 | 11.36415 | 22994 ft | 421 kts | 45° |
| 2026-05-04 21:25 | 54.33766 | 11.40126 | 22987 ft | 421 kts | 45° |
| 2026-05-04 21:25 | 54.35732 | 11.43838 | 22988 ft | 421 kts | 45° |
| 2026-05-04 21:25 | 54.37702 | 11.47565 | 22994 ft | 421 kts | 45° |
| 2026-05-04 21:25 | 54.39670 | 11.51281 | 22995 ft | 421 kts | 45° |
| 2026-05-04 21:26 | 54.41644 | 11.55007 | 22993 ft | 421 kts | 45° |
| 2026-05-04 21:26 | 54.43611 | 11.58727 | 22997 ft | 421 kts | 45° |
| 2026-05-04 21:26 | 54.45581 | 11.62456 | 22997 ft | 421 kts | 44° |
| 2026-05-04 21:26 | 54.47552 | 11.66186 | 22998 ft | 421 kts | 44° |
| 2026-05-04 21:27 | 54.49519 | 11.69913 | 23001 ft | 421 kts | 44° |
| 2026-05-04 21:27 | 54.51509 | 11.73686 | 22996 ft | 430 kts | 44° |
| 2026-05-04 21:27 | 54.53532 | 11.77519 | 22993 ft | 434 kts | 44° |
| 2026-05-04 21:27 | 54.55559 | 11.81375 | 22992 ft | 435 kts | 44° |
| 2026-05-04 21:28 | 54.57588 | 11.85248 | 22988 ft | 435 kts | 44° |
| 2026-05-04 21:28 | 54.59588 | 11.89075 | 22989 ft | 435 kts | 44° |
| 2026-05-04 21:28 | 54.61673 | 11.92834 | 22990 ft | 432 kts | 37° |
| 2026-05-04 21:28 | 54.64068 | 11.95919 | 22991 ft | 427 kts | 29° |
| 2026-05-04 21:29 | 54.66538 | 11.98763 | 22990 ft | 427 kts | 29° |
| 2026-05-04 21:29 | 54.69014 | 12.01613 | 22989 ft | 427 kts | 29° |
| 2026-05-04 21:29 | 54.71488 | 12.04465 | 22989 ft | 427 kts | 29° |
| 2026-05-04 21:29 | 54.73955 | 12.07319 | 22993 ft | 427 kts | 29° |
| 2026-05-04 21:30 | 54.76424 | 12.10183 | 22995 ft | 427 kts | 29° |
| 2026-05-04 21:30 | 54.78896 | 12.13053 | 22995 ft | 427 kts | 29° |
| 2026-05-04 21:30 | 54.81362 | 12.15921 | 22997 ft | 427 kts | 29° |
| 2026-05-04 21:30 | 54.83792 | 12.18751 | 22995 ft | 427 kts | 29° |
| 2026-05-04 21:31 | 54.88737 | 12.24531 | 22998 ft | 426 kts | 29° |
| 2026-05-04 21:31 | 54.91195 | 12.27413 | 23003 ft | 426 kts | 29° |
| 2026-05-04 21:31 | 54.93652 | 12.30296 | 23001 ft | 426 kts | 30° |
| 2026-05-04 21:32 | 54.96107 | 12.33166 | 23003 ft | 425 kts | 29° |
| 2026-05-04 21:32 | 54.98568 | 12.36019 | 23010 ft | 419 kts | 29° |
| 2026-05-04 21:32 | 55.00942 | 12.38780 | 23000 ft | 404 kts | 29° |
| 2026-05-04 21:32 | 55.03255 | 12.41476 | 22673 ft | 397 kts | 29° |
| 2026-05-04 21:33 | 55.05546 | 12.44155 | 21953 ft | 399 kts | 30° |
| 2026-05-04 21:33 | 55.07855 | 12.46864 | 21097 ft | 405 kts | 30° |
| 2026-05-04 21:33 | 55.10176 | 12.49601 | 20133 ft | 401 kts | 30° |
| 2026-05-04 21:33 | 55.12478 | 12.52318 | 19227 ft | 396 kts | 31° |
| 2026-05-04 21:34 | 55.14738 | 12.54986 | 18361 ft | 390 kts | 31° |
| 2026-05-04 21:34 | 55.16975 | 12.57624 | 17419 ft | 384 kts | 31° |
| 2026-05-04 21:34 | 55.19177 | 12.60224 | 16498 ft | 379 kts | 31° |
| 2026-05-04 21:34 | 55.21345 | 12.62783 | 15784 ft | 370 kts | 30° |
| 2026-05-04 21:35 | 55.23465 | 12.65015 | 15566 ft | 343 kts | 20° |
| 2026-05-04 21:35 | 55.25654 | 12.66397 | 14999 ft | 331 kts | 13° |
| 2026-05-04 21:35 | 55.27814 | 12.67615 | 14368 ft | 327 kts | 13° |
| 2026-05-04 21:35 | 55.29910 | 12.68794 | 13743 ft | 323 kts | 13° |
| 2026-05-04 21:36 | 55.32048 | 12.69998 | 13020 ft | 320 kts | 13° |
| 2026-05-04 21:36 | 55.34151 | 12.71185 | 12340 ft | 316 kts | 13° |
| 2026-05-04 21:36 | 55.36234 | 12.72369 | 11742 ft | 310 kts | 14° |
| 2026-05-04 21:36 | 55.38098 | 12.74071 | 11488 ft | 299 kts | 36° |
| 2026-05-04 21:37 | 55.39442 | 12.76762 | 11240 ft | 288 kts | 58° |
| 2026-05-04 21:37 | 55.40129 | 12.79972 | 10988 ft | 275 kts | 80° |
| 2026-05-04 21:37 | 55.40164 | 12.83241 | 10741 ft | 263 kts | 101° |
| 2026-05-04 21:37 | 55.39623 | 12.86244 | 10494 ft | 255 kts | 121° |
| 2026-05-04 21:38 | 55.38605 | 12.88735 | 10257 ft | 248 kts | 140° |
| 2026-05-04 21:38 | 55.37245 | 12.90512 | 10018 ft | 241 kts | 158° |
| 2026-05-04 21:38 | 55.35699 | 12.91471 | 9837 ft | 232 kts | 175° |
| 2026-05-04 21:38 | 55.34110 | 12.91614 | 9708 ft | 226 kts | 192° |
| 2026-05-04 21:39 | 55.32602 | 12.90923 | 9579 ft | 237 kts | 212° |
| 2026-05-04 21:39 | 55.31332 | 12.88935 | 9445 ft | 256 kts | 241° |
| 2026-05-04 21:39 | 55.30848 | 12.85943 | 9310 ft | 260 kts | 272° |
| 2026-05-04 21:39 | 55.31401 | 12.82932 | 9179 ft | 266 kts | 303° |
| 2026-05-04 21:40 | 55.32868 | 12.80930 | 9045 ft | 276 kts | 336° |
| 2026-05-04 21:40 | 55.34783 | 12.80334 | 8955 ft | 283 kts | 350° |
| 2026-05-04 21:40 | 55.36743 | 12.80036 | 8765 ft | 282 kts | 351° |
| 2026-05-04 21:40 | 55.38686 | 12.79799 | 8339 ft | 281 kts | 352° |
| 2026-05-04 21:41 | 55.40616 | 12.79574 | 7928 ft | 279 kts | 352° |
| 2026-05-04 21:41 | 55.42564 | 12.79338 | 7521 ft | 277 kts | 351° |
| 2026-05-04 21:41 | 55.44485 | 12.79093 | 7123 ft | 275 kts | 351° |
| 2026-05-04 21:41 | 55.46398 | 12.78884 | 6717 ft | 275 kts | 356° |
| 2026-05-04 21:42 | 55.48304 | 12.79315 | 6316 ft | 278 kts | 11° |
| 2026-05-04 21:42 | 55.50148 | 12.80359 | 5998 ft | 277 kts | 14° |
| 2026-05-04 21:42 | 55.51959 | 12.81412 | 5968 ft | 278 kts | 14° |
| 2026-05-04 21:42 | 55.53813 | 12.82479 | 5671 ft | 275 kts | 14° |
| 2026-05-04 21:43 | 55.55614 | 12.83512 | 5221 ft | 275 kts | 15° |
| 2026-05-04 21:43 | 55.57408 | 12.84662 | 4798 ft | 273 kts | 18° |
| 2026-05-04 21:43 | 55.59167 | 12.85912 | 4372 ft | 271 kts | 19° |
| 2026-05-04 21:43 | 55.60899 | 12.87191 | 4041 ft | 268 kts | 20° |
| 2026-05-04 21:44 | 55.62587 | 12.88616 | 4006 ft | 271 kts | 29° |
| 2026-05-04 21:44 | 55.64079 | 12.90664 | 4008 ft | 273 kts | 40° |
| 2026-05-04 21:44 | 55.65443 | 12.92833 | 4003 ft | 254 kts | 39° |
| 2026-05-04 21:44 | 55.66734 | 12.94854 | 3883 ft | 242 kts | 38° |
| 2026-05-04 21:45 | 55.67997 | 12.96802 | 3582 ft | 240 kts | 38° |
| 2026-05-04 21:45 | 55.69266 | 12.98684 | 3269 ft | 236 kts | 30° |
| 2026-05-04 21:45 | 55.70753 | 12.99692 | 3042 ft | 224 kts | 4° |
| 2026-05-04 21:45 | 55.72232 | 12.99493 | 2993 ft | 205 kts | 339° |
| 2026-05-04 21:46 | 55.73422 | 12.98376 | 2996 ft | 185 kts | 317° |
| 2026-05-04 21:46 | 55.74219 | 12.96748 | 3028 ft | 171 kts | 299° |
| 2026-05-04 21:46 | 55.74635 | 12.94862 | 3018 ft | 162 kts | 281° |
| 2026-05-04 21:46 | 55.74682 | 12.92887 | 3009 ft | 160 kts | 264° |
| 2026-05-04 21:47 | 55.74504 | 12.90942 | 3009 ft | 160 kts | 262° |
| 2026-05-04 21:47 | 55.74331 | 12.88997 | 3004 ft | 159 kts | 262° |
| 2026-05-04 21:47 | 55.74160 | 12.87053 | 3007 ft | 159 kts | 262° |
| 2026-05-04 21:47 | 55.73913 | 12.85139 | 3006 ft | 160 kts | 250° |
| 2026-05-04 21:48 | 55.73309 | 12.83530 | 2880 ft | 153 kts | 227° |
| 2026-05-04 21:48 | 55.72537 | 12.82331 | 2690 ft | 142 kts | 225° |
| 2026-05-04 21:48 | 55.71817 | 12.81202 | 2516 ft | 135 kts | 225° |
| 2026-05-04 21:48 | 55.71117 | 12.80106 | 2337 ft | 134 kts | 225° |
| 2026-05-04 21:49 | 55.70655 | 12.79384 | 2216 ft | 134 kts | 225° |
| 2026-05-04 21:49 | 55.69959 | 12.78298 | 2038 ft | 133 kts | 225° |
| 2026-05-04 21:49 | 55.69263 | 12.77212 | 1852 ft | 133 kts | 225° |
| 2026-05-04 21:49 | 55.68568 | 12.76129 | 1673 ft | 133 kts | 225° |
| 2026-05-04 21:50 | 55.67871 | 12.75044 | 1485 ft | 133 kts | 225° |
| 2026-05-04 21:50 | 55.67236 | 12.74056 | 1319 ft | 132 kts | 225° |
| 2026-05-04 21:50 | 55.66546 | 12.72978 | 1137 ft | 132 kts | 226° |
| 2026-05-04 21:50 | 55.65860 | 12.71905 | 941 ft | 132 kts | 224° |
| 2026-05-04 21:51 | 55.65174 | 12.70839 | 731 ft | 131 kts | 223° |
| 2026-05-04 21:51 | 55.64561 | 12.69900 | 597 ft | 130 kts | 223° |
| 2026-05-04 21:51 | 55.63879 | 12.68846 | 419 ft | 130 kts | 223° |
| 2026-05-04 21:51 | 55.63218 | 12.67821 | 253 ft | 129 kts | 222° |
| 2026-05-04 21:52 | 55.62615 | 12.66875 | 89 ft | 128 kts | 223° |
| 2026-05-04 21:52 | 55.61831 | 12.65652 | 19 ft | 96 kts | 220° |
| 2026-05-04 21:52 | 55.61549 | 12.65217 | 18 ft | 63 kts | 221° |
| 2026-05-04 21:52 | 55.61334 | 12.64873 | 18 ft | 32 kts | 231° |
| 2026-05-04 21:53 | 55.61238 | 12.64533 | 17 ft | 31 kts | 252° |
| 2026-05-04 21:53 | 55.61206 | 12.64356 | 19 ft | 0 kts | 252° |
| 2026-05-04 21:53 | 55.61206 | 12.64354 | 19 ft | 2 kts | 252° |
| 2026-05-04 21:53 | 55.61184 | 12.64235 | 18 ft | 13 kts | 254° |
| 2026-05-04 21:54 | 55.61231 | 12.64107 | 17 ft | 14 kts | 345° |
| 2026-05-04 21:54 | 55.61322 | 12.64162 | 17 ft | 14 kts | 30° |
| 2026-05-04 21:54 | 55.61401 | 12.64254 | 19 ft | 13 kts | 32° |
| 2026-05-04 21:54 | 55.61474 | 12.64336 | 18 ft | 12 kts | 32° |
| 2026-05-04 21:55 | 55.61541 | 12.64412 | 17 ft | 11 kts | 34° |
| 2026-05-04 21:55 | 55.61600 | 12.64483 | 17 ft | 10 kts | 34° |
| 2026-05-04 21:55 | 55.61656 | 12.64551 | 17 ft | 9 kts | 34° |
| 2026-05-04 21:55 | 55.61709 | 12.64606 | 18 ft | 9 kts | 32° |
| 2026-05-04 21:56 | 55.61794 | 12.64707 | 17 ft | 20 kts | 34° |
| 2026-05-04 21:56 | 55.61918 | 12.64845 | 17 ft | 22 kts | 33° |
| 2026-05-04 21:56 | 55.62045 | 12.64988 | 18 ft | 7 kts | 34° |
| 2026-05-04 21:56 | 55.62086 | 12.65040 | 20 ft | 7 kts | 34° |
| 2026-05-04 21:57 | 55.62125 | 12.65087 | 18 ft | 7 kts | 32° |
| 2026-05-04 21:57 | 55.62164 | 12.65129 | 17 ft | 6 kts | 31° |
| 2026-05-04 21:57 | 55.62202 | 12.65168 | 20 ft | 6 kts | 27° |
| 2026-05-04 21:57 | 55.62260 | 12.65109 | 17 ft | 17 kts | 304° |
| 2026-05-04 21:58 | 55.62330 | 12.64922 | 17 ft | 20 kts | 301° |
| 2026-05-04 21:58 | 55.62410 | 12.64707 | 18 ft | 22 kts | 303° |
| 2026-05-04 21:58 | 55.62487 | 12.64498 | 18 ft | 17 kts | 302° |
| 2026-05-04 21:58 | 55.62557 | 12.64309 | 17 ft | 20 kts | 302° |
| 2026-05-04 21:59 | 55.62617 | 12.64147 | 17 ft | 14 kts | 304° |
| 2026-05-04 21:59 | 55.62642 | 12.64097 | 17 ft | 2 kts | 350° |
| 2026-05-04 21:59 | 55.62656 | 12.64118 | 17 ft | 6 kts | 34° |
| 2026-05-04 21:59 | 55.62680 | 12.64147 | 17 ft | 2 kts | 34° |
| 2026-05-04 22:00 | 55.62691 | 12.64159 | 20 ft | 2 kts | 32° |
| 2026-05-04 22:00 | 55.62698 | 12.64167 | 18 ft | 0 kts | 33° |
| 2026-05-04 22:00 | 55.62698 | 12.64168 | 18 ft | 0 kts | 33° |